sensor_id;sensor_type;location;lat;lon;timestamp;P1;durP1;ratioP1;P2;durP2;ratioP2
4210;SDS011;2119;48.828;12.396;2023-04-19T00:00:07;20.43;;;14.80;;
4210;SDS011;2119;48.828;12.396;2023-04-19T00:05:08;16.52;;;13.13;;
4210;SDS011;2119;48.828;12.396;2023-04-19T00:10:09;17.47;;;14.50;;
4210;SDS011;2119;48.828;12.396;2023-04-19T00:15:09;16.23;;;13.20;;
4210;SDS011;2119;48.828;12.396;2023-04-19T00:20:09;16.20;;;12.93;;
4210;SDS011;2119;48.828;12.396;2023-04-19T00:25:10;18.83;;;14.57;;
4210;SDS011;2119;48.828;12.396;2023-04-19T00:30:10;17.60;;;13.10;;
4210;SDS011;2119;48.828;12.396;2023-04-19T00:35:11;17.40;;;12.90;;
4210;SDS011;2119;48.828;12.396;2023-04-19T00:40:11;15.87;;;12.60;;
4210;SDS011;2119;48.828;12.396;2023-04-19T00:45:11;17.03;;;13.20;;
4210;SDS011;2119;48.828;12.396;2023-04-19T00:50:11;18.10;;;14.20;;
4210;SDS011;2119;48.828;12.396;2023-04-19T00:55:12;18.83;;;14.10;;
4210;SDS011;2119;48.828;12.396;2023-04-19T01:00:13;17.23;;;14.50;;
4210;SDS011;2119;48.828;12.396;2023-04-19T01:05:13;19.13;;;14.80;;
4210;SDS011;2119;48.828;12.396;2023-04-19T01:10:14;21.30;;;15.07;;
4210;SDS011;2119;48.828;12.396;2023-04-19T01:15:14;19.90;;;14.48;;
4210;SDS011;2119;48.828;12.396;2023-04-19T01:20:14;20.98;;;14.82;;
4210;SDS011;2119;48.828;12.396;2023-04-19T01:25:14;22.77;;;16.40;;
4210;SDS011;2119;48.828;12.396;2023-04-19T01:30:15;21.20;;;14.80;;
4210;SDS011;2119;48.828;12.396;2023-04-19T01:35:16;19.53;;;15.13;;
4210;SDS011;2119;48.828;12.396;2023-04-19T01:40:16;21.43;;;14.90;;
4210;SDS011;2119;48.828;12.396;2023-04-19T01:45:16;22.00;;;14.70;;
4210;SDS011;2119;48.828;12.396;2023-04-19T01:50:16;21.63;;;15.90;;
4210;SDS011;2119;48.828;12.396;2023-04-19T01:55:17;21.37;;;15.20;;
4210;SDS011;2119;48.828;12.396;2023-04-19T02:00:17;21.40;;;14.65;;
4210;SDS011;2119;48.828;12.396;2023-04-19T02:05:17;23.77;;;15.63;;
4210;SDS011;2119;48.828;12.396;2023-04-19T02:10:17;24.13;;;16.33;;
4210;SDS011;2119;48.828;12.396;2023-04-19T02:15:18;22.33;;;15.20;;
4210;SDS011;2119;48.828;12.396;2023-04-19T02:20:18;26.57;;;16.50;;
4210;SDS011;2119;48.828;12.396;2023-04-19T02:25:18;23.33;;;15.50;;
4210;SDS011;2119;48.828;12.396;2023-04-19T02:30:18;23.55;;;15.32;;
4210;SDS011;2119;48.828;12.396;2023-04-19T02:35:18;28.05;;;16.83;;
4210;SDS011;2119;48.828;12.396;2023-04-19T02:40:19;27.08;;;16.65;;
4210;SDS011;2119;48.828;12.396;2023-04-19T02:45:21;23.60;;;16.50;;
4210;SDS011;2119;48.828;12.396;2023-04-19T02:50:21;24.87;;;17.20;;
4210;SDS011;2119;48.828;12.396;2023-04-19T02:55:22;28.10;;;17.17;;
4210;SDS011;2119;48.828;12.396;2023-04-19T03:00:22;25.70;;;15.52;;
4210;SDS011;2119;48.828;12.396;2023-04-19T03:05:22;26.17;;;16.40;;
4210;SDS011;2119;48.828;12.396;2023-04-19T03:10:22;27.90;;;17.50;;
4210;SDS011;2119;48.828;12.396;2023-04-19T03:15:22;30.97;;;17.93;;
4210;SDS011;2119;48.828;12.396;2023-04-19T03:20:23;30.37;;;17.80;;
4210;SDS011;2119;48.828;12.396;2023-04-19T03:25:23;32.40;;;18.30;;
4210;SDS011;2119;48.828;12.396;2023-04-19T03:30:23;30.90;;;18.43;;
4210;SDS011;2119;48.828;12.396;2023-04-19T03:35:23;26.97;;;18.00;;
4210;SDS011;2119;48.828;12.396;2023-04-19T03:40:25;31.60;;;17.17;;
4210;SDS011;2119;48.828;12.396;2023-04-19T03:45:25;35.83;;;19.50;;
4210;SDS011;2119;48.828;12.396;2023-04-19T03:50:26;28.37;;;17.60;;
4210;SDS011;2119;48.828;12.396;2023-04-19T03:55:27;30.97;;;19.60;;
4210;SDS011;2119;48.828;12.396;2023-04-19T04:00:27;64.80;;;34.37;;
4210;SDS011;2119;48.828;12.396;2023-04-19T04:05:27;35.70;;;20.40;;
4210;SDS011;2119;48.828;12.396;2023-04-19T04:10:27;28.42;;;18.02;;
4210;SDS011;2119;48.828;12.396;2023-04-19T04:15:28;28.50;;;18.30;;
4210;SDS011;2119;48.828;12.396;2023-04-19T04:20:28;30.60;;;18.27;;
4210;SDS011;2119;48.828;12.396;2023-04-19T04:25:28;32.20;;;18.60;;
4210;SDS011;2119;48.828;12.396;2023-04-19T04:30:28;35.60;;;19.40;;
4210;SDS011;2119;48.828;12.396;2023-04-19T04:35:29;29.87;;;19.50;;
4210;SDS011;2119;48.828;12.396;2023-04-19T04:40:29;30.13;;;18.10;;
4210;SDS011;2119;48.828;12.396;2023-04-19T04:45:29;33.63;;;19.90;;
4210;SDS011;2119;48.828;12.396;2023-04-19T04:50:31;35.47;;;21.07;;
4210;SDS011;2119;48.828;12.396;2023-04-19T04:55:31;34.03;;;19.33;;
4210;SDS011;2119;48.828;12.396;2023-04-19T05:00:31;34.08;;;20.73;;
4210;SDS011;2119;48.828;12.396;2023-04-19T05:05:32;32.47;;;20.80;;
4210;SDS011;2119;48.828;12.396;2023-04-19T05:10:32;35.80;;;21.27;;
4210;SDS011;2119;48.828;12.396;2023-04-19T05:15:33;31.20;;;19.20;;
4210;SDS011;2119;48.828;12.396;2023-04-19T05:20:34;32.27;;;20.20;;
4210;SDS011;2119;48.828;12.396;2023-04-19T05:25:34;36.58;;;20.70;;
4210;SDS011;2119;48.828;12.396;2023-04-19T05:30:34;37.33;;;20.53;;
4210;SDS011;2119;48.828;12.396;2023-04-19T05:35:35;34.17;;;19.37;;
4210;SDS011;2119;48.828;12.396;2023-04-19T05:40:35;33.90;;;19.03;;
4210;SDS011;2119;48.828;12.396;2023-04-19T05:45:35;41.60;;;24.27;;
4210;SDS011;2119;48.828;12.396;2023-04-19T05:50:35;37.40;;;20.93;;
4210;SDS011;2119;48.828;12.396;2023-04-19T05:55:36;38.40;;;24.27;;
4210;SDS011;2119;48.828;12.396;2023-04-19T06:00:36;70.50;;;37.50;;
4210;SDS011;2119;48.828;12.396;2023-04-19T06:05:37;48.80;;;28.20;;
4210;SDS011;2119;48.828;12.396;2023-04-19T06:10:39;55.33;;;31.70;;
4210;SDS011;2119;48.828;12.396;2023-04-19T06:15:39;47.20;;;28.13;;
4210;SDS011;2119;48.828;12.396;2023-04-19T06:20:40;36.83;;;21.53;;
4210;SDS011;2119;48.828;12.396;2023-04-19T06:25:40;36.87;;;22.50;;
4210;SDS011;2119;48.828;12.396;2023-04-19T06:30:40;36.60;;;22.15;;
4210;SDS011;2119;48.828;12.396;2023-04-19T06:35:40;36.30;;;21.93;;
4210;SDS011;2119;48.828;12.396;2023-04-19T06:40:40;39.40;;;24.00;;
4210;SDS011;2119;48.828;12.396;2023-04-19T06:45:41;37.50;;;22.37;;
4210;SDS011;2119;48.828;12.396;2023-04-19T06:50:41;35.25;;;22.63;;
4210;SDS011;2119;48.828;12.396;2023-04-19T06:55:41;32.17;;;20.33;;
4210;SDS011;2119;48.828;12.396;2023-04-19T07:00:42;40.83;;;22.57;;
4210;SDS011;2119;48.828;12.396;2023-04-19T07:05:42;41.15;;;22.33;;
4210;SDS011;2119;48.828;12.396;2023-04-19T07:10:42;36.45;;;22.23;;
4210;SDS011;2119;48.828;12.396;2023-04-19T07:15:43;32.40;;;21.60;;
4210;SDS011;2119;48.828;12.396;2023-04-19T07:20:43;38.70;;;22.02;;
4210;SDS011;2119;48.828;12.396;2023-04-19T07:25:46;32.80;;;20.67;;
4210;SDS011;2119;48.828;12.396;2023-04-19T07:30:46;35.10;;;21.95;;
4210;SDS011;2119;48.828;12.396;2023-04-19T07:35:46;33.13;;;21.10;;
4210;SDS011;2119;48.828;12.396;2023-04-19T07:40:48;34.05;;;21.70;;
4210;SDS011;2119;48.828;12.396;2023-04-19T07:45:49;36.27;;;20.83;;
4210;SDS011;2119;48.828;12.396;2023-04-19T07:50:50;35.70;;;22.10;;
4210;SDS011;2119;48.828;12.396;2023-04-19T07:55:50;28.45;;;19.27;;
4210;SDS011;2119;48.828;12.396;2023-04-19T08:00:50;35.25;;;21.17;;
4210;SDS011;2119;48.828;12.396;2023-04-19T08:05:51;33.20;;;20.83;;
4210;SDS011;2119;48.828;12.396;2023-04-19T08:10:51;39.60;;;21.80;;
4210;SDS011;2119;48.828;12.396;2023-04-19T08:16:04;33.27;;;22.10;;
4210;SDS011;2119;48.828;12.396;2023-04-19T08:21:05;37.33;;;22.13;;
4210;SDS011;2119;48.828;12.396;2023-04-19T08:26:05;38.43;;;23.47;;
4210;SDS011;2119;48.828;12.396;2023-04-19T08:31:07;41.75;;;23.58;;
4210;SDS011;2119;48.828;12.396;2023-04-19T08:36:07;40.03;;;25.20;;
4210;SDS011;2119;48.828;12.396;2023-04-19T08:41:09;39.20;;;23.00;;
4210;SDS011;2119;48.828;12.396;2023-04-19T08:46:10;37.53;;;22.67;;
4210;SDS011;2119;48.828;12.396;2023-04-19T08:51:11;43.37;;;24.53;;
4210;SDS011;2119;48.828;12.396;2023-04-19T08:56:11;34.07;;;21.70;;
4210;SDS011;2119;48.828;12.396;2023-04-19T09:01:11;34.17;;;21.80;;
4210;SDS011;2119;48.828;12.396;2023-04-19T09:06:12;36.58;;;21.42;;
4210;SDS011;2119;48.828;12.396;2023-04-19T09:11:13;34.33;;;22.60;;
4210;SDS011;2119;48.828;12.396;2023-04-19T09:16:23;33.33;;;21.50;;
4210;SDS011;2119;48.828;12.396;2023-04-19T09:21:27;33.13;;;20.20;;
4210;SDS011;2119;48.828;12.396;2023-04-19T09:26:28;33.27;;;20.73;;
4210;SDS011;2119;48.828;12.396;2023-04-19T09:31:29;34.60;;;20.90;;
4210;SDS011;2119;48.828;12.396;2023-04-19T09:36:30;32.80;;;21.37;;
4210;SDS011;2119;48.828;12.396;2023-04-19T09:41:30;31.87;;;21.10;;
4210;SDS011;2119;48.828;12.396;2023-04-19T09:46:36;29.83;;;21.00;;
4210;SDS011;2119;48.828;12.396;2023-04-19T09:51:41;32.07;;;20.90;;
4210;SDS011;2119;48.828;12.396;2023-04-19T09:56:42;152.57;;;74.63;;
4210;SDS011;2119;48.828;12.396;2023-04-19T10:01:43;52.10;;;27.97;;
4210;SDS011;2119;48.828;12.396;2023-04-19T10:06:43;53.60;;;26.67;;
4210;SDS011;2119;48.828;12.396;2023-04-19T10:11:50;51.20;;;25.37;;
4210;SDS011;2119;48.828;12.396;2023-04-19T10:16:50;47.63;;;25.67;;
4210;SDS011;2119;48.828;12.396;2023-04-19T10:21:52;36.50;;;21.60;;
4210;SDS011;2119;48.828;12.396;2023-04-19T10:27:11;38.73;;;21.40;;
4210;SDS011;2119;48.828;12.396;2023-04-19T10:32:12;101.03;;;42.07;;
4210;SDS011;2119;48.828;12.396;2023-04-19T10:37:12;62.73;;;30.40;;
4210;SDS011;2119;48.828;12.396;2023-04-19T10:42:13;20.33;;;15.33;;
4210;SDS011;2119;48.828;12.396;2023-04-19T10:47:13;18.77;;;14.20;;
4210;SDS011;2119;48.828;12.396;2023-04-19T10:52:33;16.70;;;13.00;;
4210;SDS011;2119;48.828;12.396;2023-04-19T11:02:52;14.13;;;9.87;;
4210;SDS011;2119;48.828;12.396;2023-04-19T11:07:52;9.00;;;8.10;;
4210;SDS011;2119;48.828;12.396;2023-04-19T11:12:53;12.30;;;10.32;;
4210;SDS011;2119;48.828;12.396;2023-04-19T11:17:53;11.67;;;9.30;;
4210;SDS011;2119;48.828;12.396;2023-04-19T11:22:53;20.67;;;9.53;;
4210;SDS011;2119;48.828;12.396;2023-04-19T11:27:59;5.97;;;4.27;;
4210;SDS011;2119;48.828;12.396;2023-04-19T11:32:59;13.80;;;4.13;;
4210;SDS011;2119;48.828;12.396;2023-04-19T11:37:59;16.63;;;4.53;;
4210;SDS011;2119;48.828;12.396;2023-04-19T11:43:01;3.53;;;3.20;;
4210;SDS011;2119;48.828;12.396;2023-04-19T11:48:05;3.37;;;3.10;;
4210;SDS011;2119;48.828;12.396;2023-04-19T11:58:25;4.47;;;4.03;;
4210;SDS011;2119;48.828;12.396;2023-04-19T12:03:27;4.23;;;3.80;;
4210;SDS011;2119;48.828;12.396;2023-04-19T12:08:28;6.95;;;4.70;;
4210;SDS011;2119;48.828;12.396;2023-04-19T12:13:30;4.80;;;4.40;;
4210;SDS011;2119;48.828;12.396;2023-04-19T12:23:47;7.13;;;5.50;;
4210;SDS011;2119;48.828;12.396;2023-04-19T12:28:50;8.25;;;5.90;;
4210;SDS011;2119;48.828;12.396;2023-04-19T12:33:50;7.40;;;6.63;;
4210;SDS011;2119;48.828;12.396;2023-04-19T12:38:50;16.80;;;6.20;;
4210;SDS011;2119;48.828;12.396;2023-04-19T12:43:52;8.00;;;7.20;;
4210;SDS011;2119;48.828;12.396;2023-04-19T12:48:53;10.85;;;7.15;;
4210;SDS011;2119;48.828;12.396;2023-04-19T12:53:53;10.77;;;7.60;;
4210;SDS011;2119;48.828;12.396;2023-04-19T12:58:53;10.15;;;8.05;;
4210;SDS011;2119;48.828;12.396;2023-04-19T13:03:53;10.17;;;7.40;;
4210;SDS011;2119;48.828;12.396;2023-04-19T13:08:53;9.40;;;8.20;;
4210;SDS011;2119;48.828;12.396;2023-04-19T13:13:54;11.03;;;9.17;;
4210;SDS011;2119;48.828;12.396;2023-04-19T13:18:54;9.85;;;8.85;;
4210;SDS011;2119;48.828;12.396;2023-04-19T13:23:56;9.82;;;8.82;;
4210;SDS011;2119;48.828;12.396;2023-04-19T13:28:56;15.30;;;12.37;;
4210;SDS011;2119;48.828;12.396;2023-04-19T13:33:57;41.42;;;28.10;;
4210;SDS011;2119;48.828;12.396;2023-04-19T13:38:59;45.30;;;25.97;;
4210;SDS011;2119;48.828;12.396;2023-04-19T13:43:59;30.43;;;16.40;;
4210;SDS011;2119;48.828;12.396;2023-04-19T13:49:00;37.17;;;21.95;;
4210;SDS011;2119;48.828;12.396;2023-04-19T13:54:01;30.20;;;17.90;;
4210;SDS011;2119;48.828;12.396;2023-04-19T13:59:02;11.85;;;10.18;;
4210;SDS011;2119;48.828;12.396;2023-04-19T14:04:02;11.77;;;9.80;;
4210;SDS011;2119;48.828;12.396;2023-04-19T14:09:02;13.20;;;10.50;;
4210;SDS011;2119;48.828;12.396;2023-04-19T14:14:02;13.15;;;10.00;;
4210;SDS011;2119;48.828;12.396;2023-04-19T14:19:03;11.77;;;9.70;;
4210;SDS011;2119;48.828;12.396;2023-04-19T14:24:03;12.63;;;9.93;;
4210;SDS011;2119;48.828;12.396;2023-04-19T14:29:04;11.47;;;9.93;;
4210;SDS011;2119;48.828;12.396;2023-04-19T14:34:05;11.23;;;9.07;;
4210;SDS011;2119;48.828;12.396;2023-04-19T14:39:05;11.25;;;9.70;;
4210;SDS011;2119;48.828;12.396;2023-04-19T14:44:06;11.52;;;9.80;;
4210;SDS011;2119;48.828;12.396;2023-04-19T14:49:06;9.70;;;8.80;;
4210;SDS011;2119;48.828;12.396;2023-04-19T14:54:06;10.27;;;9.27;;
4210;SDS011;2119;48.828;12.396;2023-04-19T14:59:06;11.77;;;9.40;;
4210;SDS011;2119;48.828;12.396;2023-04-19T15:04:07;14.23;;;9.90;;
4210;SDS011;2119;48.828;12.396;2023-04-19T15:09:07;10.63;;;9.30;;
4210;SDS011;2119;48.828;12.396;2023-04-19T15:14:08;10.77;;;8.73;;
4210;SDS011;2119;48.828;12.396;2023-04-19T15:19:09;13.03;;;10.70;;
4210;SDS011;2119;48.828;12.396;2023-04-19T15:24:09;10.40;;;9.40;;
4210;SDS011;2119;48.828;12.396;2023-04-19T15:29:10;13.73;;;11.17;;
4210;SDS011;2119;48.828;12.396;2023-04-19T15:34:10;11.13;;;9.40;;
4210;SDS011;2119;48.828;12.396;2023-04-19T15:39:10;14.50;;;9.33;;
4210;SDS011;2119;48.828;12.396;2023-04-19T15:44:10;10.40;;;9.33;;
4210;SDS011;2119;48.828;12.396;2023-04-19T15:49:10;12.10;;;10.80;;
4210;SDS011;2119;48.828;12.396;2023-04-19T15:54:12;10.70;;;9.00;;
4210;SDS011;2119;48.828;12.396;2023-04-19T15:59:12;14.90;;;12.70;;
4210;SDS011;2119;48.828;12.396;2023-04-19T16:04:13;15.00;;;12.00;;
4210;SDS011;2119;48.828;12.396;2023-04-19T16:09:13;12.40;;;9.40;;
4210;SDS011;2119;48.828;12.396;2023-04-19T16:14:14;10.80;;;9.70;;
4210;SDS011;2119;48.828;12.396;2023-04-19T16:19:14;11.00;;;9.80;;
4210;SDS011;2119;48.828;12.396;2023-04-19T16:24:14;10.37;;;9.30;;
4210;SDS011;2119;48.828;12.396;2023-04-19T16:29:15;12.17;;;10.63;;
4210;SDS011;2119;48.828;12.396;2023-04-19T16:34:15;12.37;;;10.27;;
4210;SDS011;2119;48.828;12.396;2023-04-19T16:39:15;11.87;;;9.77;;
4210;SDS011;2119;48.828;12.396;2023-04-19T16:44:16;12.20;;;10.73;;
4210;SDS011;2119;48.828;12.396;2023-04-19T16:49:16;14.30;;;11.57;;
4210;SDS011;2119;48.828;12.396;2023-04-19T16:54:16;13.50;;;10.97;;
4210;SDS011;2119;48.828;12.396;2023-04-19T16:59:16;14.60;;;11.03;;
4210;SDS011;2119;48.828;12.396;2023-04-19T17:04:17;14.77;;;11.85;;
4210;SDS011;2119;48.828;12.396;2023-04-19T17:09:18;12.68;;;10.15;;
4210;SDS011;2119;48.828;12.396;2023-04-19T17:14:18;12.33;;;11.03;;
4210;SDS011;2119;48.828;12.396;2023-04-19T17:19:19;11.60;;;10.30;;
4210;SDS011;2119;48.828;12.396;2023-04-19T17:24:19;9.75;;;8.85;;
4210;SDS011;2119;48.828;12.396;2023-04-19T17:29:20;14.90;;;10.67;;
4210;SDS011;2119;48.828;12.396;2023-04-19T17:34:20;16.27;;;11.40;;
4210;SDS011;2119;48.828;12.396;2023-04-19T17:39:21;14.20;;;10.55;;
4210;SDS011;2119;48.828;12.396;2023-04-19T17:44:21;12.35;;;10.13;;
4210;SDS011;2119;48.828;12.396;2023-04-19T17:49:21;12.87;;;10.40;;
4210;SDS011;2119;48.828;12.396;2023-04-19T17:54:22;13.93;;;12.15;;
4210;SDS011;2119;48.828;12.396;2023-04-19T17:59:22;12.57;;;11.00;;
4210;SDS011;2119;48.828;12.396;2023-04-19T18:04:22;14.10;;;10.83;;
4210;SDS011;2119;48.828;12.396;2023-04-19T18:09:24;12.63;;;10.40;;
4210;SDS011;2119;48.828;12.396;2023-04-19T18:14:24;13.07;;;10.80;;
4210;SDS011;2119;48.828;12.396;2023-04-19T18:19:25;14.30;;;11.27;;
4210;SDS011;2119;48.828;12.396;2023-04-19T18:24:26;13.60;;;11.53;;
4210;SDS011;2119;48.828;12.396;2023-04-19T18:34:29;12.83;;;11.30;;
4210;SDS011;2119;48.828;12.396;2023-04-19T18:39:30;18.15;;;13.80;;
4210;SDS011;2119;48.828;12.396;2023-04-19T18:44:31;25.15;;;14.75;;
4210;SDS011;2119;48.828;12.396;2023-04-19T18:49:31;160.27;;;60.27;;
4210;SDS011;2119;48.828;12.396;2023-04-19T18:54:31;42.92;;;23.83;;
4210;SDS011;2119;48.828;12.396;2023-04-19T18:59:32;26.27;;;17.45;;
4210;SDS011;2119;48.828;12.396;2023-04-19T19:04:33;23.00;;;16.40;;
4210;SDS011;2119;48.828;12.396;2023-04-19T19:09:33;32.83;;;21.33;;
4210;SDS011;2119;48.828;12.396;2023-04-19T19:14:33;34.10;;;21.43;;
4210;SDS011;2119;48.828;12.396;2023-04-19T19:19:34;24.90;;;17.70;;
4210;SDS011;2119;48.828;12.396;2023-04-19T19:24:35;35.13;;;21.38;;
4210;SDS011;2119;48.828;12.396;2023-04-19T19:29:35;28.70;;;21.73;;
4210;SDS011;2119;48.828;12.396;2023-04-19T19:34:36;80.72;;;43.75;;
4210;SDS011;2119;48.828;12.396;2023-04-19T19:39:36;28.30;;;20.50;;
4210;SDS011;2119;48.828;12.396;2023-04-19T19:44:37;42.08;;;22.50;;
4210;SDS011;2119;48.828;12.396;2023-04-19T19:49:37;37.17;;;21.00;;
4210;SDS011;2119;48.828;12.396;2023-04-19T19:54:37;28.02;;;19.98;;
4210;SDS011;2119;48.828;12.396;2023-04-19T19:59:37;32.23;;;23.33;;
4210;SDS011;2119;48.828;12.396;2023-04-19T20:04:38;18.20;;;13.93;;
4210;SDS011;2119;48.828;12.396;2023-04-19T20:09:38;21.73;;;16.60;;
4210;SDS011;2119;48.828;12.396;2023-04-19T20:14:39;27.70;;;18.00;;
4210;SDS011;2119;48.828;12.396;2023-04-19T20:19:39;47.73;;;29.23;;
4210;SDS011;2119;48.828;12.396;2023-04-19T20:24:43;30.57;;;19.87;;
4210;SDS011;2119;48.828;12.396;2023-04-19T20:29:44;26.70;;;18.03;;
4210;SDS011;2119;48.828;12.396;2023-04-19T20:34:45;17.98;;;14.60;;
4210;SDS011;2119;48.828;12.396;2023-04-19T20:39:47;17.90;;;14.37;;
4210;SDS011;2119;48.828;12.396;2023-04-19T20:44:47;28.37;;;17.30;;
4210;SDS011;2119;48.828;12.396;2023-04-19T20:49:47;14.80;;;11.32;;
4210;SDS011;2119;48.828;12.396;2023-04-19T20:54:47;15.17;;;12.07;;
4210;SDS011;2119;48.828;12.396;2023-04-19T20:59:48;14.75;;;11.32;;
4210;SDS011;2119;48.828;12.396;2023-04-19T21:04:48;13.85;;;10.57;;
4210;SDS011;2119;48.828;12.396;2023-04-19T21:09:48;17.75;;;13.63;;
4210;SDS011;2119;48.828;12.396;2023-04-19T21:14:48;24.40;;;15.98;;
4210;SDS011;2119;48.828;12.396;2023-04-19T21:19:51;17.50;;;13.67;;
4210;SDS011;2119;48.828;12.396;2023-04-19T21:24:53;22.88;;;13.60;;
4210;SDS011;2119;48.828;12.396;2023-04-19T21:29:54;14.27;;;10.87;;
4210;SDS011;2119;48.828;12.396;2023-04-19T21:34:55;11.40;;;9.77;;
4210;SDS011;2119;48.828;12.396;2023-04-19T21:39:56;8.27;;;7.43;;
4210;SDS011;2119;48.828;12.396;2023-04-19T21:44:59;8.57;;;7.53;;
4210;SDS011;2119;48.828;12.396;2023-04-19T21:49:59;9.13;;;8.23;;
4210;SDS011;2119;48.828;12.396;2023-04-19T21:55:00;11.23;;;7.88;;
4210;SDS011;2119;48.828;12.396;2023-04-19T22:00:00;14.18;;;8.98;;
4210;SDS011;2119;48.828;12.396;2023-04-19T22:05:00;9.80;;;8.90;;
4210;SDS011;2119;48.828;12.396;2023-04-19T22:10:01;13.50;;;8.60;;
4210;SDS011;2119;48.828;12.396;2023-04-19T22:15:01;8.30;;;7.20;;
4210;SDS011;2119;48.828;12.396;2023-04-19T22:20:01;9.43;;;8.33;;
4210;SDS011;2119;48.828;12.396;2023-04-19T22:25:05;8.40;;;7.60;;
4210;SDS011;2119;48.828;12.396;2023-04-19T22:30:05;9.83;;;8.00;;
4210;SDS011;2119;48.828;12.396;2023-04-19T22:35:06;8.50;;;7.70;;
4210;SDS011;2119;48.828;12.396;2023-04-19T22:40:07;8.00;;;7.20;;
4210;SDS011;2119;48.828;12.396;2023-04-19T22:45:08;7.07;;;6.47;;
4210;SDS011;2119;48.828;12.396;2023-04-19T22:50:09;7.87;;;7.07;;
4210;SDS011;2119;48.828;12.396;2023-04-19T22:55:09;8.10;;;7.40;;
4210;SDS011;2119;48.828;12.396;2023-04-19T23:00:10;10.37;;;8.80;;
4210;SDS011;2119;48.828;12.396;2023-04-19T23:05:10;10.27;;;9.20;;
4210;SDS011;2119;48.828;12.396;2023-04-19T23:10:10;9.20;;;7.90;;
4210;SDS011;2119;48.828;12.396;2023-04-19T23:15:11;8.30;;;7.30;;
4210;SDS011;2119;48.828;12.396;2023-04-19T23:20:12;8.03;;;7.23;;
4210;SDS011;2119;48.828;12.396;2023-04-19T23:25:12;8.85;;;7.07;;
4210;SDS011;2119;48.828;12.396;2023-04-19T23:30:12;8.40;;;7.50;;
4210;SDS011;2119;48.828;12.396;2023-04-19T23:35:14;9.88;;;8.85;;
4210;SDS011;2119;48.828;12.396;2023-04-19T23:40:14;9.80;;;8.80;;
4210;SDS011;2119;48.828;12.396;2023-04-19T23:45:14;8.30;;;7.50;;
4210;SDS011;2119;48.828;12.396;2023-04-19T23:50:14;8.80;;;7.90;;
4210;SDS011;2119;48.828;12.396;2023-04-19T23:55:14;11.63;;;9.13;;
